createdAt,value
2019-01-30T00:00:16.695Z,973.10
2019-01-30T00:01:16.923Z,973.09
2019-01-30T00:02:17.122Z,973.00
2019-01-30T00:03:17.332Z,973.02
2019-01-30T00:04:17.550Z,973.00
2019-01-30T00:05:17.754Z,972.96
2019-01-30T00:06:17.988Z,972.98
2019-01-30T00:07:18.206Z,972.92
2019-01-30T00:08:18.395Z,972.91
2019-01-30T00:09:18.632Z,972.89
2019-01-30T00:10:18.820Z,972.85
2019-01-30T00:11:19.035Z,972.86
2019-01-30T00:12:19.251Z,972.87
2019-01-30T00:13:19.455Z,972.80
2019-01-30T00:14:19.701Z,972.81
2019-01-30T00:15:19.880Z,972.82
2019-01-30T00:16:20.147Z,972.84
2019-01-30T00:17:20.325Z,972.80
2019-01-30T00:18:20.521Z,972.77
2019-01-30T00:19:20.754Z,972.75
2019-01-30T00:20:20.956Z,972.72
2019-01-30T00:21:21.162Z,972.70
2019-01-30T00:22:21.399Z,972.66
2019-01-30T00:23:21.565Z,972.65
2019-01-30T00:24:21.823Z,972.59
2019-01-30T00:25:23.948Z,972.59
2019-01-30T00:26:22.298Z,972.58
2019-01-30T00:27:22.439Z,972.53
2019-01-30T00:28:22.650Z,972.55
2019-01-30T00:29:22.842Z,972.52
2019-01-30T00:30:23.110Z,972.51
2019-01-30T00:31:23.247Z,972.50
2019-01-30T00:32:23.457Z,972.48
2019-01-30T00:33:23.687Z,972.44
2019-01-30T00:34:23.884Z,972.43
2019-01-30T00:35:24.133Z,972.39
2019-01-30T00:36:24.304Z,972.41
2019-01-30T00:37:24.560Z,972.40
2019-01-30T00:38:24.744Z,972.35
2019-01-30T00:39:24.945Z,972.35
2019-01-30T00:40:25.181Z,972.31
2019-01-30T00:41:25.400Z,972.28
2019-01-30T00:42:25.576Z,972.26
2019-01-30T00:43:25.804Z,972.25
2019-01-30T00:44:26.003Z,972.26
2019-01-30T00:45:26.238Z,972.23
2019-01-30T00:46:26.454Z,972.23
2019-01-30T00:47:26.646Z,972.20
2019-01-30T00:48:26.873Z,972.19
2019-01-30T00:49:27.108Z,972.20
2019-01-30T00:50:27.374Z,972.21
2019-01-30T00:51:27.526Z,972.23
2019-01-30T00:52:27.727Z,972.18
2019-01-30T00:53:27.959Z,972.21
2019-01-30T00:54:32.116Z,972.18
2019-01-30T00:55:28.368Z,972.19
2019-01-30T00:56:28.602Z,972.15
2019-01-30T00:57:28.792Z,972.14
2019-01-30T00:58:29.016Z,972.14
2019-01-30T00:59:29.236Z,972.13
2019-01-30T01:00:29.437Z,972.13
2019-01-30T01:01:29.685Z,972.12
2019-01-30T01:02:29.869Z,972.12
2019-01-30T01:03:30.093Z,972.12
2019-01-30T01:04:30.350Z,972.09
2019-01-30T01:05:30.535Z,972.07
2019-01-30T01:06:30.742Z,972.03
2019-01-30T01:07:30.990Z,972.01
2019-01-30T01:08:31.186Z,972.03
2019-01-30T01:09:31.408Z,971.99
2019-01-30T01:10:31.629Z,972.00
2019-01-30T01:11:31.857Z,971.98
2019-01-30T01:12:32.072Z,971.97
2019-01-30T01:13:32.265Z,971.95
2019-01-30T01:14:32.497Z,971.98
2019-01-30T01:15:32.697Z,971.97
2019-01-30T01:16:32.944Z,971.97
2019-01-30T01:17:33.132Z,971.94
2019-01-30T01:18:33.335Z,971.91
2019-01-30T01:19:33.570Z,971.91
2019-01-30T01:20:33.788Z,971.89
2019-01-30T01:21:33.987Z,971.85
2019-01-30T01:22:34.211Z,971.90
2019-01-30T01:23:34.419Z,971.91
2019-01-30T01:24:34.647Z,971.87
2019-01-30T01:25:34.870Z,971.84
2019-01-30T01:26:35.062Z,971.84
2019-01-30T01:27:35.311Z,971.86
2019-01-30T01:28:35.487Z,971.84
2019-01-30T01:29:35.737Z,971.89
2019-01-30T01:30:35.931Z,971.86
2019-01-30T01:31:36.140Z,971.82
2019-01-30T01:32:36.338Z,971.81
2019-01-30T01:33:36.571Z,971.76
2019-01-30T01:34:36.775Z,971.79
2019-01-30T01:35:36.972Z,971.80
2019-01-30T01:36:37.201Z,971.81
2019-01-30T01:37:37.467Z,971.76
2019-01-30T01:38:37.676Z,971.74
2019-01-30T01:39:37.854Z,971.69
2019-01-30T01:40:38.075Z,971.70
2019-01-30T01:41:38.267Z,971.68
2019-01-30T01:42:38.488Z,971.68
2019-01-30T01:43:38.704Z,971.67
2019-01-30T01:44:38.891Z,971.67
2019-01-30T01:45:39.131Z,971.62
2019-01-30T01:46:39.340Z,971.60
2019-01-30T01:47:39.514Z,971.56
2019-01-30T01:48:39.752Z,971.54
2019-01-30T01:49:39.945Z,971.50
2019-01-30T01:50:40.188Z,971.50
2019-01-30T01:51:40.390Z,971.52
2019-01-30T01:52:40.574Z,971.52
2019-01-30T01:53:40.801Z,971.45
2019-01-30T01:54:41.007Z,971.45
2019-01-30T01:55:41.216Z,971.46
2019-01-30T01:56:41.439Z,971.43
2019-01-30T01:57:41.665Z,971.40
2019-01-30T01:58:41.878Z,971.42
2019-01-30T01:59:42.134Z,971.41
2019-01-30T02:00:42.319Z,971.36
2019-01-30T02:01:42.527Z,971.34
2019-01-30T02:02:42.753Z,971.30
2019-01-30T02:03:42.950Z,971.32
2019-01-30T02:04:43.162Z,971.31
2019-01-30T02:05:43.360Z,971.25
2019-01-30T02:06:43.572Z,971.27
2019-01-30T02:07:43.784Z,971.24
2019-01-30T02:08:44.008Z,971.19
2019-01-30T02:09:44.222Z,971.22
2019-01-30T02:10:44.422Z,971.14
2019-01-30T02:11:44.687Z,971.17
2019-01-30T02:12:44.892Z,971.14
2019-01-30T02:13:45.062Z,971.14
2019-01-30T02:14:45.293Z,971.09
2019-01-30T02:15:45.475Z,971.09
2019-01-30T02:16:45.711Z,971.10
2019-01-30T02:17:45.912Z,971.04
2019-01-30T02:18:46.113Z,971.05
2019-01-30T02:19:46.363Z,971.07
2019-01-30T02:20:46.565Z,970.97
2019-01-30T02:21:46.753Z,970.98
2019-01-30T02:22:46.988Z,970.96
2019-01-30T02:23:47.185Z,970.94
2019-01-30T02:24:47.420Z,970.96
2019-01-30T02:25:47.672Z,970.96
2019-01-30T02:26:47.822Z,970.91
2019-01-30T02:27:48.046Z,970.91
2019-01-30T02:28:48.254Z,970.93
2019-01-30T02:29:48.486Z,970.88
2019-01-30T02:30:48.699Z,970.85
2019-01-30T02:31:48.897Z,970.90
2019-01-30T02:32:49.146Z,970.82
2019-01-30T02:33:49.343Z,970.81
2019-01-30T02:34:49.545Z,970.82
2019-01-30T02:35:49.798Z,970.83
2019-01-30T02:36:49.974Z,970.85
2019-01-30T02:37:50.216Z,970.85
2019-01-30T02:38:50.456Z,970.85
2019-01-30T02:39:50.617Z,970.81
2019-01-30T02:40:50.868Z,970.82
2019-01-30T02:41:51.044Z,970.80
2019-01-30T02:42:51.266Z,970.80
2019-01-30T02:43:51.500Z,970.82
2019-01-30T02:44:51.694Z,970.80
2019-01-30T02:45:51.938Z,970.81
2019-01-30T02:46:52.180Z,970.77
2019-01-30T02:47:52.332Z,970.78
2019-01-30T02:48:52.587Z,970.74
2019-01-30T02:49:52.758Z,970.75
2019-01-30T02:50:53.004Z,970.72
2019-01-30T02:51:53.216Z,970.72
2019-01-30T02:52:53.404Z,970.71
2019-01-30T02:53:53.630Z,970.69
2019-01-30T02:54:53.844Z,970.65
2019-01-30T02:55:54.060Z,970.68
2019-01-30T02:56:54.262Z,970.72
2019-01-30T02:57:54.486Z,970.65
2019-01-30T02:58:54.713Z,970.65
2019-01-30T02:59:54.936Z,970.65
2019-01-30T03:00:59.341Z,970.67
2019-01-30T03:01:55.352Z,970.66
2019-01-30T03:02:55.535Z,970.66
2019-01-30T03:03:55.796Z,970.64
2019-01-30T03:04:55.982Z,970.62
2019-01-30T03:05:56.172Z,970.58
2019-01-30T03:06:56.411Z,970.55
2019-01-30T03:07:56.603Z,970.52
2019-01-30T03:08:56.846Z,970.54
2019-01-30T03:09:57.030Z,970.52
2019-01-30T03:10:57.239Z,970.45
2019-01-30T03:11:57.468Z,970.49
2019-01-30T03:12:57.680Z,970.48
2019-01-30T03:13:57.885Z,970.47
2019-01-30T03:14:58.138Z,970.43
2019-01-30T03:15:58.309Z,970.41
2019-01-30T03:16:58.545Z,970.37
2019-01-30T03:17:58.735Z,970.39
2019-01-30T03:18:58.956Z,970.38
2019-01-30T03:19:59.208Z,970.41
2019-01-30T03:20:59.383Z,970.40
2019-01-30T03:21:59.622Z,970.46
2019-01-30T03:22:59.819Z,970.35
2019-01-30T03:24:00.049Z,970.34
2019-01-30T03:25:00.276Z,970.40
2019-01-30T03:26:00.471Z,970.39
2019-01-30T03:27:00.667Z,970.36
2019-01-30T03:28:00.917Z,970.35
2019-01-30T03:29:01.103Z,970.37
2019-01-30T03:30:01.337Z,970.36
2019-01-30T03:31:16.708Z,970.32
2019-01-30T03:32:01.747Z,970.31
2019-01-30T03:33:02.025Z,970.30
2019-01-30T03:34:02.186Z,970.28
2019-01-30T03:35:02.398Z,970.27
2019-01-30T03:36:02.612Z,970.28
2019-01-30T03:37:02.787Z,970.20
2019-01-30T03:38:03.019Z,970.25
2019-01-30T03:39:03.230Z,970.26
2019-01-30T03:40:03.429Z,970.21
2019-01-30T03:41:03.665Z,970.18
2019-01-30T03:42:03.864Z,970.17
2019-01-30T03:43:04.117Z,970.13
2019-01-30T03:44:04.306Z,970.11
2019-01-30T03:45:04.499Z,970.11
2019-01-30T03:46:04.777Z,970.06
2019-01-30T03:47:04.953Z,970.08
2019-01-30T03:48:05.140Z,970.08
2019-01-30T03:49:05.384Z,970.08
2019-01-30T03:50:05.564Z,970.05
2019-01-30T03:51:05.777Z,970.02
2019-01-30T03:52:06.018Z,970.03
2019-01-30T03:53:06.197Z,969.96
2019-01-30T03:54:06.429Z,969.94
2019-01-30T03:55:06.622Z,969.93
2019-01-30T03:56:06.858Z,969.95
2019-01-30T03:57:07.063Z,969.91
2019-01-30T03:58:07.257Z,969.94
2019-01-30T03:59:07.501Z,969.88
2019-01-30T04:00:07.701Z,969.85
2019-01-30T04:01:07.900Z,969.84
2019-01-30T04:02:08.110Z,969.83
2019-01-30T04:03:08.335Z,969.83
2019-01-30T04:04:08.557Z,969.81
2019-01-30T04:05:08.770Z,969.80
2019-01-30T04:06:08.985Z,969.79
2019-01-30T04:07:09.255Z,969.82
2019-01-30T04:08:09.402Z,969.81
2019-01-30T04:09:09.667Z,969.81
2019-01-30T04:10:09.865Z,969.80
2019-01-30T04:11:10.034Z,969.79
2019-01-30T04:12:10.272Z,969.78
2019-01-30T04:13:10.486Z,969.73
2019-01-30T04:14:10.673Z,969.78
2019-01-30T04:15:10.907Z,969.74
2019-01-30T04:16:11.098Z,969.72
2019-01-30T04:17:11.340Z,969.77
2019-01-30T04:18:11.531Z,969.75
2019-01-30T04:19:11.745Z,969.69
2019-01-30T04:20:11.991Z,969.73
2019-01-30T04:21:12.177Z,969.71
2019-01-30T04:22:12.449Z,969.70
2019-01-30T04:23:12.617Z,969.69
2019-01-30T04:24:12.820Z,969.67
2019-01-30T04:25:13.034Z,969.65
2019-01-30T04:26:13.257Z,969.61
2019-01-30T04:27:13.485Z,969.62
2019-01-30T04:28:13.709Z,969.62
2019-01-30T04:29:13.900Z,969.54
2019-01-30T04:30:14.144Z,969.60
2019-01-30T04:31:14.342Z,969.52
2019-01-30T04:32:14.558Z,969.51
2019-01-30T04:33:14.904Z,969.48
2019-01-30T04:34:14.974Z,969.51
2019-01-30T04:35:15.205Z,969.51
2019-01-30T04:36:15.430Z,969.48
2019-01-30T04:37:15.622Z,969.49
2019-01-30T04:38:15.835Z,969.48
2019-01-30T04:39:16.068Z,969.43
2019-01-30T04:40:16.257Z,969.42
2019-01-30T04:41:16.478Z,969.40
2019-01-30T04:42:16.701Z,969.37
2019-01-30T04:43:16.934Z,969.35
2019-01-30T04:44:17.183Z,969.30
2019-01-30T04:45:17.331Z,969.33
2019-01-30T04:46:17.574Z,969.35
2019-01-30T04:47:17.758Z,969.41
2019-01-30T04:48:17.994Z,969.37
2019-01-30T04:49:18.200Z,969.31
2019-01-30T04:50:18.401Z,969.29
2019-01-30T04:51:18.637Z,969.28
2019-01-30T04:52:18.866Z,969.28
2019-01-30T04:53:19.041Z,969.29
2019-01-30T04:54:19.277Z,969.24
2019-01-30T04:55:19.484Z,969.24
2019-01-30T04:56:19.711Z,969.23
2019-01-30T04:57:19.931Z,969.24
2019-01-30T04:58:20.103Z,969.21
2019-01-30T04:59:20.450Z,969.22
2019-01-30T05:00:20.546Z,969.20
2019-01-30T05:01:20.777Z,969.20
2019-01-30T05:02:20.994Z,969.22
2019-01-30T05:03:21.189Z,969.22
2019-01-30T05:04:21.432Z,969.23
2019-01-30T05:05:21.647Z,969.18
2019-01-30T05:06:21.839Z,969.23
2019-01-30T05:07:22.049Z,969.18
2019-01-30T05:08:22.263Z,969.18
2019-01-30T05:09:22.485Z,969.19
2019-01-30T05:10:22.722Z,969.18
2019-01-30T05:11:22.901Z,969.16
2019-01-30T05:12:23.161Z,969.11
2019-01-30T05:13:23.343Z,969.11
2019-01-30T05:14:23.647Z,969.12
2019-01-30T05:15:23.766Z,969.11
2019-01-30T05:16:23.966Z,969.06
2019-01-30T05:17:24.204Z,969.08
2019-01-30T05:18:24.421Z,969.07
2019-01-30T05:19:24.605Z,969.05
2019-01-30T05:20:24.838Z,969.06
2019-01-30T05:21:25.026Z,969.00
2019-01-30T05:22:25.252Z,969.02
2019-01-30T05:23:25.467Z,969.07
2019-01-30T05:24:25.681Z,969.04
2019-01-30T05:25:25.915Z,969.07
2019-01-30T05:26:26.101Z,969.11
2019-01-30T05:27:26.320Z,969.13
2019-01-30T05:28:26.541Z,969.16
2019-01-30T05:29:26.762Z,969.14
2019-01-30T05:30:26.997Z,969.09
2019-01-30T05:31:27.227Z,969.11
2019-01-30T05:32:27.396Z,969.12
2019-01-30T05:33:27.633Z,969.15
2019-01-30T05:34:27.833Z,969.12
2019-01-30T05:35:28.054Z,969.14
2019-01-30T05:36:28.273Z,969.12
2019-01-30T05:37:28.480Z,969.11
2019-01-30T05:38:28.710Z,969.15
2019-01-30T05:39:28.913Z,969.18
2019-01-30T05:40:29.122Z,969.18
2019-01-30T05:41:29.346Z,969.21
2019-01-30T05:42:29.542Z,969.15
2019-01-30T05:43:29.807Z,969.21
2019-01-30T05:44:30.025Z,969.16
2019-01-30T05:45:30.195Z,969.17
2019-01-30T05:46:30.418Z,969.20
2019-01-30T05:47:30.615Z,969.15
2019-01-30T05:48:30.843Z,969.15
2019-01-30T05:49:31.061Z,969.11
2019-01-30T05:50:31.254Z,969.10
2019-01-30T05:51:31.514Z,969.11
2019-01-30T05:52:31.720Z,969.06
2019-01-30T05:53:31.901Z,969.03
2019-01-30T05:54:32.142Z,969.00
2019-01-30T05:55:32.331Z,968.99
2019-01-30T05:56:32.568Z,969.02
2019-01-30T05:57:32.790Z,969.01
2019-01-30T05:58:32.971Z,968.99
2019-01-30T05:59:33.190Z,969.00
2019-01-30T06:00:33.408Z,969.00
2019-01-30T06:01:33.635Z,968.98
2019-01-30T06:02:33.865Z,968.98
2019-01-30T06:03:34.061Z,968.96
2019-01-30T06:04:34.291Z,968.94
2019-01-30T06:05:34.530Z,968.96
2019-01-30T06:06:34.703Z,968.94
2019-01-30T06:07:34.926Z,969.00
2019-01-30T06:08:35.137Z,968.97
2019-01-30T06:09:35.383Z,968.95
2019-01-30T06:10:35.588Z,968.93
2019-01-30T06:11:35.779Z,968.90
2019-01-30T06:12:36.026Z,968.87
2019-01-30T06:13:36.202Z,968.89
2019-01-30T06:14:36.453Z,968.83
2019-01-30T06:15:36.646Z,968.86
2019-01-30T06:16:36.867Z,968.85
2019-01-30T06:17:37.130Z,968.82
2019-01-30T06:18:37.320Z,968.84
2019-01-30T06:19:37.501Z,968.85
2019-01-30T06:20:37.760Z,968.85
2019-01-30T06:21:37.926Z,968.85
2019-01-30T06:22:38.238Z,968.90
2019-01-30T06:23:38.376Z,968.84
2019-01-30T06:24:38.560Z,968.84
2019-01-30T06:25:38.839Z,968.85
2019-01-30T06:26:38.998Z,968.79
2019-01-30T06:27:39.241Z,968.80
2019-01-30T06:28:39.462Z,968.78
2019-01-30T06:29:39.633Z,968.71
2019-01-30T06:30:39.881Z,968.72
2019-01-30T06:31:40.064Z,968.75
2019-01-30T06:32:40.290Z,968.66
2019-01-30T06:33:40.505Z,968.66
2019-01-30T06:34:40.798Z,968.65
2019-01-30T06:35:40.981Z,968.66
2019-01-30T06:36:41.173Z,968.67
2019-01-30T06:37:41.397Z,968.64
2019-01-30T06:38:41.646Z,968.64
2019-01-30T06:39:41.811Z,968.71
2019-01-30T06:40:42.056Z,968.64
2019-01-30T06:41:42.270Z,968.64
2019-01-30T06:42:42.460Z,968.61
2019-01-30T06:43:42.663Z,968.66
2019-01-30T06:44:42.886Z,968.62
2019-01-30T06:45:43.099Z,968.61
2019-01-30T06:46:43.333Z,968.63
2019-01-30T06:47:43.523Z,968.59
2019-01-30T06:48:43.749Z,968.64
2019-01-30T06:49:43.974Z,968.55
2019-01-30T06:50:44.156Z,968.58
2019-01-30T06:51:44.407Z,968.58
2019-01-30T06:52:44.621Z,968.51
2019-01-30T06:53:44.814Z,968.54
2019-01-30T06:54:45.076Z,968.53
2019-01-30T06:55:45.219Z,968.55
2019-01-30T06:56:45.443Z,968.53
2019-01-30T06:57:45.648Z,968.54
2019-01-30T06:58:45.855Z,968.53
2019-01-30T06:59:46.112Z,968.53
2019-01-30T07:00:46.331Z,968.49
2019-01-30T07:01:46.587Z,968.51
2019-01-30T07:02:46.779Z,968.51
2019-01-30T07:03:46.987Z,968.56
2019-01-30T07:04:47.218Z,968.53
2019-01-30T07:05:47.471Z,968.55
2019-01-30T07:06:47.645Z,968.53
2019-01-30T07:07:47.885Z,968.54
2019-01-30T07:08:48.062Z,968.51
2019-01-30T07:09:48.279Z,968.52
2019-01-30T07:10:48.504Z,968.56
2019-01-30T07:11:48.686Z,968.54
2019-01-30T07:12:48.951Z,968.55
2019-01-30T07:13:49.121Z,968.56
2019-01-30T07:14:49.348Z,968.56
2019-01-30T07:15:49.588Z,968.58
2019-01-30T07:16:49.755Z,968.57
2019-01-30T07:17:49.983Z,968.58
2019-01-30T07:18:50.202Z,968.54
2019-01-30T07:19:50.402Z,968.55
2019-01-30T07:20:50.632Z,968.51
2019-01-30T07:21:50.862Z,968.53
2019-01-30T07:22:51.046Z,968.49
2019-01-30T07:23:51.261Z,968.48
2019-01-30T07:24:51.475Z,968.47
2019-01-30T07:25:51.697Z,968.46
2019-01-30T07:26:51.914Z,968.47
2019-01-30T07:27:52.131Z,968.46
2019-01-30T07:28:52.348Z,968.49
2019-01-30T07:29:52.568Z,968.48
2019-01-30T07:30:52.786Z,968.47
2019-01-30T07:31:53.005Z,968.47
2019-01-30T07:32:53.228Z,968.50
2019-01-30T07:33:53.455Z,968.50
2019-01-30T07:34:53.661Z,968.53
2019-01-30T07:35:53.882Z,968.44
2019-01-30T07:36:54.101Z,968.49
2019-01-30T07:37:54.323Z,968.47
2019-01-30T07:38:54.539Z,968.52
2019-01-30T07:39:54.759Z,968.51
2019-01-30T07:40:54.974Z,968.51
2019-01-30T07:41:55.195Z,968.48
2019-01-30T07:42:55.419Z,968.51
2019-01-30T07:43:55.638Z,968.47
2019-01-30T07:44:55.859Z,968.48
2019-01-30T07:45:56.080Z,968.51
2019-01-30T07:46:56.301Z,968.51
2019-01-30T07:47:56.522Z,968.60
2019-01-30T07:48:56.742Z,968.52
2019-01-30T07:49:56.957Z,968.58
2019-01-30T07:50:57.177Z,968.58
2019-01-30T07:51:57.397Z,968.58
2019-01-30T07:52:58.996Z,968.55
2019-01-30T07:53:57.836Z,968.58
2019-01-30T07:54:58.055Z,968.56
2019-01-30T07:55:58.275Z,968.57
2019-01-30T07:56:58.498Z,968.58
2019-01-30T07:57:58.721Z,968.55
2019-01-30T07:58:58.936Z,968.52
2019-01-30T07:59:59.158Z,968.53
2019-01-30T08:00:59.376Z,968.57
2019-01-30T08:01:59.596Z,968.59
2019-01-30T08:02:59.808Z,968.60
2019-01-30T08:04:00.027Z,968.58
2019-01-30T08:05:00.248Z,968.58
2019-01-30T08:06:00.474Z,968.55
2019-01-30T08:07:03.046Z,968.51
2019-01-30T08:08:00.910Z,968.47
2019-01-30T08:09:01.127Z,968.43
2019-01-30T08:10:01.363Z,968.44
2019-01-30T08:11:01.569Z,968.44
2019-01-30T08:12:01.788Z,968.50
2019-01-30T08:13:02.008Z,968.46
2019-01-30T08:14:02.230Z,968.47
2019-01-30T08:15:02.451Z,968.45
2019-01-30T08:16:02.772Z,968.49
2019-01-30T08:17:02.890Z,968.47
2019-01-30T08:18:03.111Z,968.49
2019-01-30T08:19:03.334Z,968.51
2019-01-30T08:20:03.552Z,968.47
2019-01-30T08:21:03.776Z,968.46
2019-01-30T08:22:03.990Z,968.49
2019-01-30T08:23:04.459Z,968.52
2019-01-30T08:24:04.971Z,968.52
2019-01-30T08:25:05.009Z,968.52
2019-01-30T08:26:04.985Z,968.50
2019-01-30T08:27:05.119Z,968.55
2019-01-30T08:28:05.351Z,968.50
2019-01-30T08:29:05.934Z,968.52
2019-01-30T08:30:05.804Z,968.44
2019-01-30T08:31:06.137Z,968.48
2019-01-30T08:32:06.387Z,968.47
2019-01-30T08:33:06.829Z,968.50
2019-01-30T08:34:06.637Z,968.50
2019-01-30T08:35:06.852Z,968.49
2019-01-30T08:36:07.074Z,968.45
2019-01-30T08:37:07.296Z,968.50
2019-01-30T08:38:07.518Z,968.46
2019-01-30T08:39:07.744Z,968.41
2019-01-30T08:40:07.961Z,968.43
2019-01-30T08:41:08.180Z,968.44
2019-01-30T08:42:08.400Z,968.44
2019-01-30T08:43:08.620Z,968.43
2019-01-30T08:44:08.839Z,968.51
2019-01-30T08:45:09.065Z,968.51
2019-01-30T08:46:09.283Z,968.48
2019-01-30T08:47:09.505Z,968.43
2019-01-30T08:48:09.734Z,968.46
2019-01-30T08:49:09.945Z,968.45
2019-01-30T08:50:10.167Z,968.40
2019-01-30T08:51:10.380Z,968.40
2019-01-30T08:52:10.601Z,968.41
2019-01-30T08:53:10.818Z,968.38
2019-01-30T08:54:11.046Z,968.40
2019-01-30T08:55:11.261Z,968.40
2019-01-30T08:56:11.482Z,968.38
2019-01-30T08:57:11.703Z,968.44
2019-01-30T08:58:11.924Z,968.41
2019-01-30T08:59:12.146Z,968.35
2019-01-30T09:00:12.369Z,968.38
2019-01-30T09:01:12.589Z,968.33
2019-01-30T09:02:12.803Z,968.38
2019-01-30T09:03:15.030Z,968.45
2019-01-30T09:04:13.252Z,968.39
2019-01-30T09:05:13.465Z,968.39
2019-01-30T09:06:13.683Z,968.43
2019-01-30T09:07:13.902Z,968.43
2019-01-30T09:08:14.126Z,968.43
2019-01-30T09:09:14.348Z,968.44
2019-01-30T09:10:14.566Z,968.45
2019-01-30T09:11:14.784Z,968.44
2019-01-30T09:12:15.006Z,968.43
2019-01-30T09:13:15.234Z,968.46
2019-01-30T09:14:15.453Z,968.51
2019-01-30T09:15:15.674Z,968.49
2019-01-30T09:16:15.892Z,968.47
2019-01-30T09:17:16.109Z,968.50
2019-01-30T09:18:16.334Z,968.50
2019-01-30T09:19:16.554Z,968.51
2019-01-30T09:20:16.780Z,968.51
2019-01-30T09:21:17.001Z,968.46
2019-01-30T09:22:17.257Z,968.48
2019-01-30T09:23:17.443Z,968.48
2019-01-30T09:24:17.667Z,968.45
2019-01-30T09:25:17.888Z,968.49
2019-01-30T09:26:18.110Z,968.50
2019-01-30T09:27:18.333Z,968.49
2019-01-30T09:28:18.556Z,968.43
2019-01-30T09:29:18.784Z,968.45
2019-01-30T09:30:19.154Z,968.46
2019-01-30T09:31:19.223Z,968.45
2019-01-30T09:32:19.442Z,968.41
2019-01-30T09:33:25.864Z,968.43
2019-01-30T09:34:19.887Z,968.39
2019-01-30T09:35:20.106Z,968.36
2019-01-30T09:36:20.325Z,968.34
2019-01-30T09:37:20.551Z,968.29
2019-01-30T09:38:20.784Z,968.29
2019-01-30T09:39:21.021Z,968.34
2019-01-30T09:40:21.248Z,968.30
2019-01-30T09:41:21.441Z,968.25
2019-01-30T09:42:21.693Z,968.27
2019-01-30T09:43:21.884Z,968.30
2019-01-30T09:44:22.108Z,968.29
2019-01-30T09:45:22.324Z,968.27
2019-01-30T09:46:22.547Z,968.25
2019-01-30T09:47:22.768Z,968.17
2019-01-30T09:48:22.990Z,968.16
2019-01-30T09:49:23.210Z,968.20
2019-01-30T09:50:23.434Z,968.20
2019-01-30T09:51:23.660Z,968.21
2019-01-30T09:52:26.989Z,968.18
2019-01-30T09:53:24.108Z,968.18
2019-01-30T09:54:24.352Z,968.13
2019-01-30T09:55:24.569Z,968.16
2019-01-30T09:56:24.760Z,968.14
2019-01-30T09:57:24.980Z,968.16
2019-01-30T09:58:25.198Z,968.15
2019-01-30T09:59:25.423Z,968.15
2019-01-30T10:00:25.639Z,968.15
2019-01-30T10:01:25.857Z,968.12
2019-01-30T10:02:26.082Z,968.11
2019-01-30T10:03:35.723Z,968.14
2019-01-30T10:04:26.563Z,968.13
2019-01-30T10:05:26.746Z,968.15
2019-01-30T10:06:26.961Z,968.13
2019-01-30T10:07:27.186Z,968.15
2019-01-30T10:08:27.410Z,968.15
2019-01-30T10:09:27.628Z,968.16
2019-01-30T10:10:27.851Z,968.13
2019-01-30T10:11:28.071Z,968.15
2019-01-30T10:12:28.293Z,968.11
2019-01-30T10:13:28.516Z,968.09
2019-01-30T10:14:28.736Z,968.09
2019-01-30T10:15:28.955Z,968.10
2019-01-30T10:16:29.181Z,968.13
2019-01-30T10:17:31.035Z,968.11
2019-01-30T10:18:29.624Z,968.11
2019-01-30T10:19:29.845Z,968.11
2019-01-30T10:20:30.067Z,968.07
2019-01-30T10:21:30.289Z,968.07
2019-01-30T10:22:30.511Z,968.13
2019-01-30T10:23:30.735Z,968.07
2019-01-30T10:24:30.956Z,968.03
2019-01-30T10:25:31.178Z,968.10
2019-01-30T10:26:31.400Z,968.02
2019-01-30T10:27:31.621Z,968.06
2019-01-30T10:28:31.842Z,968.04
2019-01-30T10:29:32.065Z,968.05
2019-01-30T10:30:32.285Z,968.04
2019-01-30T10:31:32.509Z,968.03
2019-01-30T10:32:32.729Z,968.01
2019-01-30T10:33:32.950Z,968.04
2019-01-30T10:34:33.169Z,967.98
2019-01-30T10:35:33.392Z,967.97
2019-01-30T10:36:33.614Z,967.98
2019-01-30T10:37:33.835Z,967.96
2019-01-30T10:38:34.113Z,967.96
2019-01-30T10:39:34.276Z,967.95
2019-01-30T10:40:34.500Z,967.92
2019-01-30T10:41:34.720Z,967.91
2019-01-30T10:42:34.944Z,967.93
2019-01-30T10:43:35.166Z,967.94
2019-01-30T10:44:35.386Z,967.96
2019-01-30T10:45:38.067Z,967.95
2019-01-30T10:46:35.837Z,967.92
2019-01-30T10:47:36.055Z,967.92
2019-01-30T10:48:36.595Z,967.90
2019-01-30T10:49:36.497Z,967.95
2019-01-30T10:50:36.835Z,967.92
2019-01-30T10:51:36.941Z,967.96
2019-01-30T10:52:37.174Z,967.92
2019-01-30T10:53:37.395Z,967.92
2019-01-30T10:54:37.620Z,967.87
2019-01-30T10:55:37.838Z,967.90
2019-01-30T10:56:38.067Z,967.91
2019-01-30T10:57:38.285Z,967.86
2019-01-30T10:58:38.504Z,967.92
2019-01-30T10:59:38.728Z,967.90
2019-01-30T11:00:38.951Z,967.91
2019-01-30T11:01:39.169Z,967.88
2019-01-30T11:02:39.398Z,967.88
2019-01-30T11:03:39.615Z,967.92
2019-01-30T11:04:39.836Z,967.88
2019-01-30T11:05:40.061Z,967.88
2019-01-30T11:06:40.283Z,967.89
2019-01-30T11:07:40.503Z,967.87
2019-01-30T11:08:40.727Z,967.88
2019-01-30T11:09:40.955Z,967.86
2019-01-30T11:10:41.186Z,967.84
2019-01-30T11:11:41.394Z,967.85
2019-01-30T11:12:41.616Z,967.86
2019-01-30T11:13:41.842Z,967.86
2019-01-30T11:14:42.061Z,967.87
2019-01-30T11:15:42.286Z,967.84
2019-01-30T11:16:42.512Z,967.83
2019-01-30T11:17:42.737Z,967.82
2019-01-30T11:18:42.960Z,967.84
2019-01-30T11:19:45.420Z,967.88
2019-01-30T11:20:43.408Z,967.86
2019-01-30T11:21:43.631Z,967.85
2019-01-30T11:22:43.855Z,967.87
2019-01-30T11:23:44.080Z,967.85
2019-01-30T11:24:44.302Z,967.92
2019-01-30T11:25:44.529Z,967.86
2019-01-30T11:26:44.757Z,967.87
2019-01-30T11:27:44.975Z,967.86
2019-01-30T11:28:45.201Z,967.85
2019-01-30T11:29:45.424Z,967.87
2019-01-30T11:30:45.650Z,967.84
2019-01-30T11:31:45.871Z,967.84
2019-01-30T11:32:46.091Z,967.83
2019-01-30T11:33:46.316Z,967.85
2019-01-30T11:34:46.547Z,967.85
2019-01-30T11:35:46.763Z,967.85
2019-01-30T11:36:46.988Z,967.84
2019-01-30T11:37:47.210Z,967.79
2019-01-30T11:38:47.433Z,967.81
2019-01-30T11:39:47.659Z,967.80
2019-01-30T11:40:47.877Z,967.86
2019-01-30T11:41:48.101Z,967.82
2019-01-30T11:42:48.324Z,967.85
2019-01-30T11:43:48.550Z,967.86
2019-01-30T11:44:48.774Z,967.83
2019-01-30T11:45:48.999Z,967.82
2019-01-30T11:46:49.222Z,967.88
2019-01-30T11:47:49.448Z,967.88
2019-01-30T11:48:56.216Z,967.85
2019-01-30T11:49:49.894Z,967.86
2019-01-30T11:50:50.112Z,967.84
2019-01-30T11:51:50.337Z,967.79
2019-01-30T11:52:50.560Z,967.77
2019-01-30T11:53:50.785Z,967.76
2019-01-30T11:54:51.001Z,967.77
2019-01-30T11:55:51.222Z,967.80
2019-01-30T11:56:51.492Z,967.76
2019-01-30T11:57:51.666Z,967.76
2019-01-30T11:58:51.889Z,967.74
2019-01-30T11:59:52.113Z,967.73
2019-01-30T12:00:52.331Z,967.72
2019-01-30T12:01:52.553Z,967.71
2019-01-30T12:02:52.772Z,967.72
2019-01-30T12:03:52.997Z,967.71
2019-01-30T12:04:53.218Z,967.73
2019-01-30T12:05:53.442Z,967.72
2019-01-30T12:06:53.675Z,967.74
2019-01-30T12:07:53.880Z,967.72
2019-01-30T12:08:54.101Z,967.70
2019-01-30T12:09:55.917Z,967.71
2019-01-30T12:10:54.565Z,967.73
2019-01-30T12:11:54.781Z,967.72
2019-01-30T12:12:54.996Z,967.70
2019-01-30T12:13:55.217Z,967.65
2019-01-30T12:14:55.441Z,967.66
2019-01-30T12:15:55.664Z,967.68
2019-01-30T12:16:55.890Z,967.68
2019-01-30T12:17:56.128Z,967.72
2019-01-30T12:18:56.337Z,967.67
2019-01-30T12:19:56.546Z,967.62
2019-01-30T12:20:56.788Z,967.65
2019-01-30T12:21:57.004Z,967.65
2019-01-30T12:22:57.225Z,967.65
2019-01-30T12:23:57.449Z,967.60
2019-01-30T12:24:57.675Z,967.62
2019-01-30T12:25:57.898Z,967.60
2019-01-30T12:26:58.126Z,967.61
2019-01-30T12:27:58.342Z,967.58
2019-01-30T12:28:58.565Z,967.60
2019-01-30T12:29:58.789Z,967.59
2019-01-30T12:30:59.017Z,967.61